sensor_id;sensor_type;location;lat;lon;timestamp;temperature;humidity
43185;DHT22;28803;52.308;19.096;2022-10-16T00:01:30;11.10;99.90
43185;DHT22;28803;52.308;19.096;2022-10-16T00:03:59;11.10;99.90
43185;DHT22;28803;52.308;19.096;2022-10-16T00:06:28;11.00;99.90
43185;DHT22;28803;52.308;19.096;2022-10-16T00:08:55;11.10;99.90
43185;DHT22;28803;52.308;19.096;2022-10-16T00:11:32;11.00;99.90
43185;DHT22;28803;52.308;19.096;2022-10-16T00:14:02;11.00;99.90
43185;DHT22;28803;52.308;19.096;2022-10-16T00:16:29;10.90;99.90
43185;DHT22;28803;52.308;19.096;2022-10-16T00:18:56;10.80;99.90
43185;DHT22;28803;52.308;19.096;2022-10-16T00:21:26;10.80;99.90
43185;DHT22;28803;52.308;19.096;2022-10-16T00:23:59;10.80;99.90
43185;DHT22;28803;52.308;19.096;2022-10-16T00:26:27;10.70;99.90
43185;DHT22;28803;52.308;19.096;2022-10-16T00:28:55;10.70;99.90
43185;DHT22;28803;52.308;19.096;2022-10-16T00:31:22;10.70;99.90
43185;DHT22;28803;52.308;19.096;2022-10-16T00:33:51;10.70;99.90
43185;DHT22;28803;52.308;19.096;2022-10-16T00:36:21;10.60;99.90
43185;DHT22;28803;52.308;19.096;2022-10-16T00:38:53;10.60;99.90
43185;DHT22;28803;52.308;19.096;2022-10-16T00:41:23;10.60;99.90
43185;DHT22;28803;52.308;19.096;2022-10-16T00:46:21;10.60;99.90
43185;DHT22;28803;52.308;19.096;2022-10-16T00:51:29;10.50;99.90
43185;DHT22;28803;52.308;19.096;2022-10-16T00:53:57;10.40;99.90
43185;DHT22;28803;52.308;19.096;2022-10-16T00:56:24;10.40;99.90
43185;DHT22;28803;52.308;19.096;2022-10-16T00:58:52;10.30;99.90
43185;DHT22;28803;52.308;19.096;2022-10-16T01:01:19;10.30;99.90
43185;DHT22;28803;52.308;19.096;2022-10-16T01:03:46;10.30;99.90
43185;DHT22;28803;52.308;19.096;2022-10-16T01:09:15;10.20;99.90
43185;DHT22;28803;52.308;19.096;2022-10-16T01:14:48;10.20;99.90
43185;DHT22;28803;52.308;19.096;2022-10-16T01:17:28;10.10;99.90
43185;DHT22;28803;52.308;19.096;2022-10-16T01:20:20;10.10;99.90
43185;DHT22;28803;52.308;19.096;2022-10-16T01:26:24;10.00;99.90
43185;DHT22;28803;52.308;19.096;2022-10-16T01:29:07;10.00;99.90
43185;DHT22;28803;52.308;19.096;2022-10-16T01:31:39;9.90;99.90
43185;DHT22;28803;52.308;19.096;2022-10-16T01:34:15;9.90;99.90
43185;DHT22;28803;52.308;19.096;2022-10-16T01:36:52;9.90;99.90
43185;DHT22;28803;52.308;19.096;2022-10-16T01:39:23;9.90;99.90
43185;DHT22;28803;52.308;19.096;2022-10-16T01:41:55;10.00;99.90
43185;DHT22;28803;52.308;19.096;2022-10-16T01:44:32;10.10;99.90
43185;DHT22;28803;52.308;19.096;2022-10-16T01:47:00;10.20;99.90
43185;DHT22;28803;52.308;19.096;2022-10-16T01:49:32;10.30;99.90
43185;DHT22;28803;52.308;19.096;2022-10-16T01:52:05;10.30;99.90
43185;DHT22;28803;52.308;19.096;2022-10-16T01:54:34;10.30;99.90
43185;DHT22;28803;52.308;19.096;2022-10-16T01:57:05;10.30;99.90
43185;DHT22;28803;52.308;19.096;2022-10-16T01:59:39;10.40;99.90
43185;DHT22;28803;52.308;19.096;2022-10-16T02:02:09;10.40;99.90
43185;DHT22;28803;52.308;19.096;2022-10-16T02:04:46;10.40;99.90
43185;DHT22;28803;52.308;19.096;2022-10-16T02:07:14;10.50;99.90
43185;DHT22;28803;52.308;19.096;2022-10-16T02:09:42;10.50;99.90
43185;DHT22;28803;52.308;19.096;2022-10-16T02:12:18;10.50;99.90
43185;DHT22;28803;52.308;19.096;2022-10-16T02:14:46;10.60;99.90
43185;DHT22;28803;52.308;19.096;2022-10-16T02:17:15;10.60;99.90
43185;DHT22;28803;52.308;19.096;2022-10-16T02:19:43;10.60;99.90
43185;DHT22;28803;52.308;19.096;2022-10-16T02:22:34;10.50;99.90
43185;DHT22;28803;52.308;19.096;2022-10-16T02:25:08;10.50;99.90
43185;DHT22;28803;52.308;19.096;2022-10-16T02:28:02;10.60;99.90
43185;DHT22;28803;52.308;19.096;2022-10-16T02:30:35;10.50;99.90
43185;DHT22;28803;52.308;19.096;2022-10-16T02:33:06;10.60;99.90
43185;DHT22;28803;52.308;19.096;2022-10-16T02:35:34;10.60;99.90
43185;DHT22;28803;52.308;19.096;2022-10-16T02:38:03;10.70;99.90
43185;DHT22;28803;52.308;19.096;2022-10-16T02:40:30;10.80;99.90
43185;DHT22;28803;52.308;19.096;2022-10-16T02:42:57;10.80;99.90
43185;DHT22;28803;52.308;19.096;2022-10-16T02:45:24;10.80;99.90
43185;DHT22;28803;52.308;19.096;2022-10-16T02:47:52;10.80;99.90
43185;DHT22;28803;52.308;19.096;2022-10-16T02:50:19;10.90;99.90
43185;DHT22;28803;52.308;19.096;2022-10-16T02:52:46;10.90;99.90
43185;DHT22;28803;52.308;19.096;2022-10-16T02:55:13;11.00;99.90
43185;DHT22;28803;52.308;19.096;2022-10-16T02:57:40;11.10;99.90
43185;DHT22;28803;52.308;19.096;2022-10-16T03:00:09;11.10;99.90
43185;DHT22;28803;52.308;19.096;2022-10-16T03:02:37;11.20;99.90
43185;DHT22;28803;52.308;19.096;2022-10-16T03:05:04;11.20;99.90
43185;DHT22;28803;52.308;19.096;2022-10-16T03:07:31;11.20;99.90
43185;DHT22;28803;52.308;19.096;2022-10-16T03:09:58;11.30;99.90
43185;DHT22;28803;52.308;19.096;2022-10-16T03:12:28;11.30;99.90
43185;DHT22;28803;52.308;19.096;2022-10-16T03:14:56;11.40;99.90
43185;DHT22;28803;52.308;19.096;2022-10-16T03:17:24;11.40;99.90
43185;DHT22;28803;52.308;19.096;2022-10-16T03:19:52;11.50;99.90
43185;DHT22;28803;52.308;19.096;2022-10-16T03:22:19;11.60;99.90
43185;DHT22;28803;52.308;19.096;2022-10-16T03:24:46;11.60;99.90
43185;DHT22;28803;52.308;19.096;2022-10-16T03:27:13;11.70;99.90
43185;DHT22;28803;52.308;19.096;2022-10-16T03:29:40;11.70;99.90
43185;DHT22;28803;52.308;19.096;2022-10-16T03:32:07;11.80;99.90
43185;DHT22;28803;52.308;19.096;2022-10-16T03:34:34;11.80;99.90
43185;DHT22;28803;52.308;19.096;2022-10-16T03:37:01;11.80;99.90
43185;DHT22;28803;52.308;19.096;2022-10-16T03:39:28;11.90;99.90
43185;DHT22;28803;52.308;19.096;2022-10-16T03:41:55;11.90;99.90
43185;DHT22;28803;52.308;19.096;2022-10-16T03:44:22;11.90;99.90
43185;DHT22;28803;52.308;19.096;2022-10-16T03:46:49;12.00;99.90
43185;DHT22;28803;52.308;19.096;2022-10-16T03:49:16;12.00;99.90
43185;DHT22;28803;52.308;19.096;2022-10-16T03:51:44;12.00;99.90
43185;DHT22;28803;52.308;19.096;2022-10-16T03:54:11;12.00;99.90
43185;DHT22;28803;52.308;19.096;2022-10-16T03:56:38;12.00;99.90
43185;DHT22;28803;52.308;19.096;2022-10-16T03:59:05;12.10;99.90
43185;DHT22;28803;52.308;19.096;2022-10-16T04:01:32;12.10;99.90
43185;DHT22;28803;52.308;19.096;2022-10-16T04:03:59;12.10;99.90
43185;DHT22;28803;52.308;19.096;2022-10-16T04:06:26;12.20;99.90
43185;DHT22;28803;52.308;19.096;2022-10-16T04:08:53;12.20;99.90
43185;DHT22;28803;52.308;19.096;2022-10-16T04:11:21;12.20;99.90
43185;DHT22;28803;52.308;19.096;2022-10-16T04:13:48;12.20;99.90
43185;DHT22;28803;52.308;19.096;2022-10-16T04:16:15;12.20;99.90
43185;DHT22;28803;52.308;19.096;2022-10-16T04:18:43;12.20;99.90
43185;DHT22;28803;52.308;19.096;2022-10-16T04:21:10;12.30;99.90
43185;DHT22;28803;52.308;19.096;2022-10-16T04:23:37;12.30;99.90
43185;DHT22;28803;52.308;19.096;2022-10-16T04:26:04;12.20;99.90
43185;DHT22;28803;52.308;19.096;2022-10-16T04:28:31;12.30;99.90
43185;DHT22;28803;52.308;19.096;2022-10-16T04:30:59;12.30;99.90
43185;DHT22;28803;52.308;19.096;2022-10-16T04:33:26;12.30;99.90
43185;DHT22;28803;52.308;19.096;2022-10-16T04:36:00;12.30;99.90
43185;DHT22;28803;52.308;19.096;2022-10-16T04:38:28;12.40;99.90
43185;DHT22;28803;52.308;19.096;2022-10-16T04:40:55;12.30;99.90
43185;DHT22;28803;52.308;19.096;2022-10-16T04:43:22;12.40;99.90
43185;DHT22;28803;52.308;19.096;2022-10-16T04:45:49;12.40;99.90
43185;DHT22;28803;52.308;19.096;2022-10-16T04:48:21;12.40;99.90
43185;DHT22;28803;52.308;19.096;2022-10-16T04:50:48;12.30;99.90
43185;DHT22;28803;52.308;19.096;2022-10-16T04:53:21;12.30;99.90
43185;DHT22;28803;52.308;19.096;2022-10-16T04:55:48;12.40;99.90
43185;DHT22;28803;52.308;19.096;2022-10-16T04:58:15;12.40;99.90
43185;DHT22;28803;52.308;19.096;2022-10-16T05:00:43;12.40;99.90
43185;DHT22;28803;52.308;19.096;2022-10-16T05:03:10;12.40;99.90
43185;DHT22;28803;52.308;19.096;2022-10-16T05:05:42;12.40;99.90
43185;DHT22;28803;52.308;19.096;2022-10-16T05:08:11;12.40;99.90
43185;DHT22;28803;52.308;19.096;2022-10-16T05:10:38;12.40;99.90
43185;DHT22;28803;52.308;19.096;2022-10-16T05:13:05;12.50;99.90
43185;DHT22;28803;52.308;19.096;2022-10-16T05:15:33;12.50;99.90
43185;DHT22;28803;52.308;19.096;2022-10-16T05:18:00;12.50;99.90
43185;DHT22;28803;52.308;19.096;2022-10-16T05:20:27;12.50;99.90
43185;DHT22;28803;52.308;19.096;2022-10-16T05:22:54;12.50;99.90
43185;DHT22;28803;52.308;19.096;2022-10-16T05:25:21;12.50;99.90
43185;DHT22;28803;52.308;19.096;2022-10-16T05:27:49;12.50;99.90
43185;DHT22;28803;52.308;19.096;2022-10-16T05:30:17;12.60;99.90
43185;DHT22;28803;52.308;19.096;2022-10-16T05:32:50;12.60;99.90
43185;DHT22;28803;52.308;19.096;2022-10-16T05:35:19;12.70;99.90
43185;DHT22;28803;52.308;19.096;2022-10-16T05:37:46;12.70;99.90
43185;DHT22;28803;52.308;19.096;2022-10-16T05:40:14;12.70;99.90
43185;DHT22;28803;52.308;19.096;2022-10-16T05:42:41;12.70;99.90
43185;DHT22;28803;52.308;19.096;2022-10-16T05:45:10;12.80;99.90
43185;DHT22;28803;52.308;19.096;2022-10-16T05:47:38;12.80;99.90
43185;DHT22;28803;52.308;19.096;2022-10-16T05:50:05;12.90;99.90
43185;DHT22;28803;52.308;19.096;2022-10-16T05:52:32;12.90;99.90
43185;DHT22;28803;52.308;19.096;2022-10-16T05:55:00;13.00;99.90
43185;DHT22;28803;52.308;19.096;2022-10-16T05:57:27;13.10;99.90
43185;DHT22;28803;52.308;19.096;2022-10-16T05:59:55;13.20;99.90
43185;DHT22;28803;52.308;19.096;2022-10-16T06:02:21;13.30;99.90
43185;DHT22;28803;52.308;19.096;2022-10-16T06:04:49;13.50;99.90
43185;DHT22;28803;52.308;19.096;2022-10-16T06:07:15;13.60;99.90
43185;DHT22;28803;52.308;19.096;2022-10-16T06:09:43;13.70;99.90
43185;DHT22;28803;52.308;19.096;2022-10-16T06:12:10;13.70;99.90
43185;DHT22;28803;52.308;19.096;2022-10-16T06:14:37;13.70;99.90
43185;DHT22;28803;52.308;19.096;2022-10-16T06:17:04;13.70;99.90
43185;DHT22;28803;52.308;19.096;2022-10-16T06:19:31;13.80;99.90
43185;DHT22;28803;52.308;19.096;2022-10-16T06:21:58;13.80;99.90
43185;DHT22;28803;52.308;19.096;2022-10-16T06:24:25;13.90;99.90
43185;DHT22;28803;52.308;19.096;2022-10-16T06:26:52;13.90;99.90
43185;DHT22;28803;52.308;19.096;2022-10-16T06:29:20;14.00;99.90
43185;DHT22;28803;52.308;19.096;2022-10-16T06:31:46;14.00;99.90
43185;DHT22;28803;52.308;19.096;2022-10-16T06:34:14;14.10;99.90
43185;DHT22;28803;52.308;19.096;2022-10-16T06:36:41;14.10;99.90
43185;DHT22;28803;52.308;19.096;2022-10-16T06:39:08;14.20;99.90
43185;DHT22;28803;52.308;19.096;2022-10-16T06:41:35;14.10;99.90
43185;DHT22;28803;52.308;19.096;2022-10-16T06:44:05;14.00;99.90
43185;DHT22;28803;52.308;19.096;2022-10-16T06:46:33;13.80;99.90
43185;DHT22;28803;52.308;19.096;2022-10-16T06:49:00;13.70;99.90
43185;DHT22;28803;52.308;19.096;2022-10-16T06:51:27;13.50;99.90
43185;DHT22;28803;52.308;19.096;2022-10-16T06:53:55;13.40;99.90
43185;DHT22;28803;52.308;19.096;2022-10-16T06:56:31;13.40;99.90
43185;DHT22;28803;52.308;19.096;2022-10-16T06:58:59;13.40;99.90
43185;DHT22;28803;52.308;19.096;2022-10-16T07:01:26;13.40;99.90
43185;DHT22;28803;52.308;19.096;2022-10-16T07:03:53;13.40;99.90
43185;DHT22;28803;52.308;19.096;2022-10-16T07:06:22;13.40;99.90
43185;DHT22;28803;52.308;19.096;2022-10-16T07:08:50;13.40;99.90
43185;DHT22;28803;52.308;19.096;2022-10-16T07:11:21;13.40;99.90
43185;DHT22;28803;52.308;19.096;2022-10-16T07:13:48;13.40;99.90
43185;DHT22;28803;52.308;19.096;2022-10-16T07:16:26;13.40;99.90
43185;DHT22;28803;52.308;19.096;2022-10-16T07:18:55;13.40;99.90
43185;DHT22;28803;52.308;19.096;2022-10-16T07:21:31;13.50;99.90
43185;DHT22;28803;52.308;19.096;2022-10-16T07:24:04;13.50;99.90
43185;DHT22;28803;52.308;19.096;2022-10-16T07:26:34;13.60;99.90
43185;DHT22;28803;52.308;19.096;2022-10-16T07:29:02;13.60;99.90
43185;DHT22;28803;52.308;19.096;2022-10-16T07:31:30;13.60;99.90
43185;DHT22;28803;52.308;19.096;2022-10-16T07:33:59;13.60;99.90
43185;DHT22;28803;52.308;19.096;2022-10-16T07:36:26;13.60;99.90
43185;DHT22;28803;52.308;19.096;2022-10-16T07:38:53;13.50;99.90
43185;DHT22;28803;52.308;19.096;2022-10-16T07:41:26;13.50;99.90
43185;DHT22;28803;52.308;19.096;2022-10-16T07:43:55;13.50;99.90
43185;DHT22;28803;52.308;19.096;2022-10-16T07:46:24;13.60;99.90
43185;DHT22;28803;52.308;19.096;2022-10-16T07:48:51;13.60;99.90
43185;DHT22;28803;52.308;19.096;2022-10-16T07:51:20;13.70;99.90
43185;DHT22;28803;52.308;19.096;2022-10-16T07:53:48;13.90;99.90
43185;DHT22;28803;52.308;19.096;2022-10-16T07:56:16;14.20;99.90
43185;DHT22;28803;52.308;19.096;2022-10-16T07:58:44;14.50;99.90
43185;DHT22;28803;52.308;19.096;2022-10-16T08:01:13;14.60;99.90
43185;DHT22;28803;52.308;19.096;2022-10-16T08:03:42;14.80;99.90
43185;DHT22;28803;52.308;19.096;2022-10-16T08:06:10;15.00;99.90
43185;DHT22;28803;52.308;19.096;2022-10-16T08:08:37;15.10;99.90
43185;DHT22;28803;52.308;19.096;2022-10-16T08:11:04;15.30;99.90
43185;DHT22;28803;52.308;19.096;2022-10-16T08:13:32;15.40;99.90
43185;DHT22;28803;52.308;19.096;2022-10-16T08:15:59;15.50;99.90
43185;DHT22;28803;52.308;19.096;2022-10-16T08:18:26;15.70;99.90
43185;DHT22;28803;52.308;19.096;2022-10-16T08:20:58;15.80;99.90
43185;DHT22;28803;52.308;19.096;2022-10-16T08:23:26;16.10;99.90
43185;DHT22;28803;52.308;19.096;2022-10-16T08:26:02;18.00;99.90
43185;DHT22;28803;52.308;19.096;2022-10-16T08:28:29;21.10;99.90
43185;DHT22;28803;52.308;19.096;2022-10-16T08:31:08;23.30;99.90
43185;DHT22;28803;52.308;19.096;2022-10-16T08:33:36;23.30;99.90
43185;DHT22;28803;52.308;19.096;2022-10-16T08:36:05;23.70;99.90
43185;DHT22;28803;52.308;19.096;2022-10-16T08:38:33;25.80;96.50
43185;DHT22;28803;52.308;19.096;2022-10-16T08:47:17;29.80;76.30
43185;DHT22;28803;52.308;19.096;2022-10-16T08:50:00;30.50;72.20
43185;DHT22;28803;52.308;19.096;2022-10-16T08:52:29;29.70;71.40
43185;DHT22;28803;52.308;19.096;2022-10-16T08:54:57;28.00;75.40
43185;DHT22;28803;52.308;19.096;2022-10-16T08:57:25;26.90;78.10
43185;DHT22;28803;52.308;19.096;2022-10-16T08:59:59;25.90;81.60
43185;DHT22;28803;52.308;19.096;2022-10-16T09:02:40;24.90;84.70
43185;DHT22;28803;52.308;19.096;2022-10-16T09:06:07;24.20;89.80
43185;DHT22;28803;52.308;19.096;2022-10-16T09:08:23;24.10;90.00
43185;DHT22;28803;52.308;19.096;2022-10-16T09:11:31;23.90;90.50
43185;DHT22;28803;52.308;19.096;2022-10-16T09:14:20;23.80;91.80
43185;DHT22;28803;52.308;19.096;2022-10-16T09:16:59;26.00;87.30
43185;DHT22;28803;52.308;19.096;2022-10-16T09:19:31;27.70;81.40
43185;DHT22;28803;52.308;19.096;2022-10-16T09:22:12;28.00;78.30
43185;DHT22;28803;52.308;19.096;2022-10-16T09:24:41;28.30;77.30
43185;DHT22;28803;52.308;19.096;2022-10-16T09:27:12;29.30;75.60
43185;DHT22;28803;52.308;19.096;2022-10-16T09:29:40;30.60;71.60
43185;DHT22;28803;52.308;19.096;2022-10-16T09:32:12;30.50;71.10
43185;DHT22;28803;52.308;19.096;2022-10-16T09:34:45;31.00;68.70
43185;DHT22;28803;52.308;19.096;2022-10-16T09:37:17;29.50;70.40
43185;DHT22;28803;52.308;19.096;2022-10-16T09:39:53;27.20;74.90
43185;DHT22;28803;52.308;19.096;2022-10-16T09:42:41;25.10;80.90
43185;DHT22;28803;52.308;19.096;2022-10-16T09:45:21;23.70;86.70
43185;DHT22;28803;52.308;19.096;2022-10-16T09:47:49;22.50;91.60
43185;DHT22;28803;52.308;19.096;2022-10-16T09:50:25;21.70;95.60
43185;DHT22;28803;52.308;19.096;2022-10-16T09:55:31;20.70;99.90
43185;DHT22;28803;52.308;19.096;2022-10-16T09:57:59;20.60;99.90
43185;DHT22;28803;52.308;19.096;2022-10-16T10:00:25;20.70;99.90
43185;DHT22;28803;52.308;19.096;2022-10-16T10:02:54;20.90;99.90
43185;DHT22;28803;52.308;19.096;2022-10-16T10:05:24;21.10;99.90
43185;DHT22;28803;52.308;19.096;2022-10-16T10:08:02;21.20;99.90
43185;DHT22;28803;52.308;19.096;2022-10-16T10:10:37;21.30;99.90
43185;DHT22;28803;52.308;19.096;2022-10-16T10:13:18;21.20;99.90
43185;DHT22;28803;52.308;19.096;2022-10-16T10:15:46;21.10;99.90
43185;DHT22;28803;52.308;19.096;2022-10-16T10:18:18;21.10;99.90
43185;DHT22;28803;52.308;19.096;2022-10-16T10:20:46;21.30;99.90
43185;DHT22;28803;52.308;19.096;2022-10-16T10:23:25;21.30;99.90
43185;DHT22;28803;52.308;19.096;2022-10-16T10:36:32;20.30;99.90
43185;DHT22;28803;52.308;19.096;2022-10-16T10:39:43;20.20;99.90
43185;DHT22;28803;52.308;19.096;2022-10-16T10:45:23;20.10;99.90
43185;DHT22;28803;52.308;19.096;2022-10-16T10:51:03;20.00;99.90
43185;DHT22;28803;52.308;19.096;2022-10-16T11:02:26;20.00;99.90
43185;DHT22;28803;52.308;19.096;2022-10-16T11:08:03;20.20;99.90
43185;DHT22;28803;52.308;19.096;2022-10-16T11:13:35;20.30;99.90
43185;DHT22;28803;52.308;19.096;2022-10-16T11:21:55;20.30;99.90
43185;DHT22;28803;52.308;19.096;2022-10-16T11:27:11;20.70;99.90
43185;DHT22;28803;52.308;19.096;2022-10-16T11:29:56;20.80;99.90
43185;DHT22;28803;52.308;19.096;2022-10-16T11:32:48;21.10;99.90
43185;DHT22;28803;52.308;19.096;2022-10-16T11:35:32;21.50;99.90
43185;DHT22;28803;52.308;19.096;2022-10-16T11:38:00;21.60;99.90
43185;DHT22;28803;52.308;19.096;2022-10-16T11:40:31;21.50;99.90
43185;DHT22;28803;52.308;19.096;2022-10-16T11:43:12;21.20;99.90
43185;DHT22;28803;52.308;19.096;2022-10-16T11:45:52;20.90;99.90
43185;DHT22;28803;52.308;19.096;2022-10-16T11:48:45;20.60;99.90
43185;DHT22;28803;52.308;19.096;2022-10-16T11:51:35;20.40;99.90
43185;DHT22;28803;52.308;19.096;2022-10-16T11:54:32;20.20;99.90
43185;DHT22;28803;52.308;19.096;2022-10-16T11:57:12;20.20;99.90
43185;DHT22;28803;52.308;19.096;2022-10-16T11:59:58;20.20;99.90
43185;DHT22;28803;52.308;19.096;2022-10-16T12:02:50;20.30;99.90
43185;DHT22;28803;52.308;19.096;2022-10-16T12:05:22;20.30;99.90
43185;DHT22;28803;52.308;19.096;2022-10-16T12:08:11;20.40;99.90
43185;DHT22;28803;52.308;19.096;2022-10-16T12:10:42;20.40;99.90
43185;DHT22;28803;52.308;19.096;2022-10-16T12:16:21;20.90;99.90
43185;DHT22;28803;52.308;19.096;2022-10-16T12:18:49;21.10;99.90
43185;DHT22;28803;52.308;19.096;2022-10-16T12:21:31;21.20;99.90
43185;DHT22;28803;52.308;19.096;2022-10-16T12:24:03;21.00;99.90
43185;DHT22;28803;52.308;19.096;2022-10-16T12:26:38;20.90;99.90
43185;DHT22;28803;52.308;19.096;2022-10-16T12:31:46;20.70;99.90
43185;DHT22;28803;52.308;19.096;2022-10-16T12:34:41;20.60;99.90
43185;DHT22;28803;52.308;19.096;2022-10-16T12:37:20;20.60;99.90
43185;DHT22;28803;52.308;19.096;2022-10-16T12:39:50;20.50;99.90
43185;DHT22;28803;52.308;19.096;2022-10-16T12:44:55;20.50;99.90
43185;DHT22;28803;52.308;19.096;2022-10-16T12:49:58;20.40;99.90
43185;DHT22;28803;52.308;19.096;2022-10-16T12:54:58;20.30;99.90
43185;DHT22;28803;52.308;19.096;2022-10-16T13:00:32;20.20;99.90
43185;DHT22;28803;52.308;19.096;2022-10-16T13:08:44;20.00;99.90
43185;DHT22;28803;52.308;19.096;2022-10-16T13:11:49;19.80;99.90
43185;DHT22;28803;52.308;19.096;2022-10-16T13:17:11;19.70;99.90
43185;DHT22;28803;52.308;19.096;2022-10-16T13:20:53;19.50;99.90
43185;DHT22;28803;52.308;19.096;2022-10-16T13:28:29;19.50;99.90
43185;DHT22;28803;52.308;19.096;2022-10-16T13:30:58;19.40;99.90
43185;DHT22;28803;52.308;19.096;2022-10-16T13:33:33;19.40;99.90
43185;DHT22;28803;52.308;19.096;2022-10-16T13:36:01;19.40;99.90
43185;DHT22;28803;52.308;19.096;2022-10-16T13:38:31;19.40;99.90
43185;DHT22;28803;52.308;19.096;2022-10-16T13:41:03;19.40;99.90
43185;DHT22;28803;52.308;19.096;2022-10-16T13:43:40;19.40;99.90
43185;DHT22;28803;52.308;19.096;2022-10-16T13:46:14;19.40;99.90
43185;DHT22;28803;52.308;19.096;2022-10-16T13:48:42;19.40;99.90
43185;DHT22;28803;52.308;19.096;2022-10-16T13:51:17;19.30;99.90
43185;DHT22;28803;52.308;19.096;2022-10-16T13:53:45;19.30;99.90
43185;DHT22;28803;52.308;19.096;2022-10-16T13:56:18;19.30;99.90
43185;DHT22;28803;52.308;19.096;2022-10-16T13:58:45;19.20;99.90
43185;DHT22;28803;52.308;19.096;2022-10-16T14:01:23;19.20;99.90
43185;DHT22;28803;52.308;19.096;2022-10-16T14:04:05;19.20;99.90
43185;DHT22;28803;52.308;19.096;2022-10-16T14:06:34;19.10;99.90
43185;DHT22;28803;52.308;19.096;2022-10-16T14:09:26;19.10;99.90
43185;DHT22;28803;52.308;19.096;2022-10-16T14:12:00;19.00;99.90
43185;DHT22;28803;52.308;19.096;2022-10-16T14:14:38;19.00;99.90
43185;DHT22;28803;52.308;19.096;2022-10-16T14:17:14;18.90;99.90
43185;DHT22;28803;52.308;19.096;2022-10-16T14:19:46;19.00;99.90
43185;DHT22;28803;52.308;19.096;2022-10-16T14:22:30;19.00;99.90
43185;DHT22;28803;52.308;19.096;2022-10-16T14:24:58;19.00;99.90
43185;DHT22;28803;52.308;19.096;2022-10-16T14:27:33;19.00;99.90
43185;DHT22;28803;52.308;19.096;2022-10-16T14:30:14;18.90;99.90
43185;DHT22;28803;52.308;19.096;2022-10-16T14:32:42;18.80;99.90
43185;DHT22;28803;52.308;19.096;2022-10-16T14:37:54;18.60;99.90
43185;DHT22;28803;52.308;19.096;2022-10-16T14:40:25;18.50;99.90
43185;DHT22;28803;52.308;19.096;2022-10-16T14:42:53;18.60;99.90
43185;DHT22;28803;52.308;19.096;2022-10-16T14:45:24;18.50;99.90
43185;DHT22;28803;52.308;19.096;2022-10-16T14:47:58;18.40;99.90
43185;DHT22;28803;52.308;19.096;2022-10-16T14:50:27;18.40;99.90
43185;DHT22;28803;52.308;19.096;2022-10-16T14:52:54;18.30;99.90
43185;DHT22;28803;52.308;19.096;2022-10-16T14:55:22;18.30;99.90
43185;DHT22;28803;52.308;19.096;2022-10-16T14:57:49;18.20;99.90
43185;DHT22;28803;52.308;19.096;2022-10-16T15:00:20;18.20;99.90
43185;DHT22;28803;52.308;19.096;2022-10-16T15:02:49;18.10;99.90
43185;DHT22;28803;52.308;19.096;2022-10-16T15:05:20;18.10;99.90
43185;DHT22;28803;52.308;19.096;2022-10-16T15:07:49;18.00;99.90
43185;DHT22;28803;52.308;19.096;2022-10-16T15:10:17;17.90;99.90
43185;DHT22;28803;52.308;19.096;2022-10-16T15:12:46;17.80;99.90
43185;DHT22;28803;52.308;19.096;2022-10-16T15:15:38;17.70;99.90
43185;DHT22;28803;52.308;19.096;2022-10-16T15:18:07;17.60;99.90
43185;DHT22;28803;52.308;19.096;2022-10-16T15:20:36;17.60;99.90
43185;DHT22;28803;52.308;19.096;2022-10-16T15:23:26;17.60;99.90
43185;DHT22;28803;52.308;19.096;2022-10-16T15:25:57;17.60;99.90
43185;DHT22;28803;52.308;19.096;2022-10-16T15:28:25;17.50;99.90
43185;DHT22;28803;52.308;19.096;2022-10-16T15:30:55;17.50;99.90
43185;DHT22;28803;52.308;19.096;2022-10-16T15:33:24;17.40;99.90
43185;DHT22;28803;52.308;19.096;2022-10-16T15:35:54;17.30;99.90
43185;DHT22;28803;52.308;19.096;2022-10-16T15:38:22;17.20;99.90
43185;DHT22;28803;52.308;19.096;2022-10-16T15:40:49;17.10;99.90
43185;DHT22;28803;52.308;19.096;2022-10-16T15:43:17;17.00;99.90
43185;DHT22;28803;52.308;19.096;2022-10-16T15:46:05;16.90;99.90
43185;DHT22;28803;52.308;19.096;2022-10-16T15:48:33;16.80;99.90
43185;DHT22;28803;52.308;19.096;2022-10-16T15:51:04;16.70;99.90
43185;DHT22;28803;52.308;19.096;2022-10-16T15:53:32;16.70;99.90
43185;DHT22;28803;52.308;19.096;2022-10-16T15:56:04;16.60;99.90
43185;DHT22;28803;52.308;19.096;2022-10-16T15:58:31;16.60;99.90
43185;DHT22;28803;52.308;19.096;2022-10-16T16:01:00;16.50;99.90
43185;DHT22;28803;52.308;19.096;2022-10-16T16:03:28;16.40;99.90
43185;DHT22;28803;52.308;19.096;2022-10-16T16:05:57;16.40;99.90
43185;DHT22;28803;52.308;19.096;2022-10-16T16:08:24;16.30;99.90
43185;DHT22;28803;52.308;19.096;2022-10-16T16:11:32;16.30;99.90
43185;DHT22;28803;52.308;19.096;2022-10-16T16:13:52;16.20;99.90
43185;DHT22;28803;52.308;19.096;2022-10-16T16:16:19;16.10;99.90
43185;DHT22;28803;52.308;19.096;2022-10-16T16:18:46;16.10;99.90
43185;DHT22;28803;52.308;19.096;2022-10-16T16:21:16;16.10;99.90
43185;DHT22;28803;52.308;19.096;2022-10-16T16:23:43;16.10;99.90
43185;DHT22;28803;52.308;19.096;2022-10-16T16:26:22;16.10;99.90
43185;DHT22;28803;52.308;19.096;2022-10-16T16:28:54;16.10;99.90
43185;DHT22;28803;52.308;19.096;2022-10-16T16:31:24;16.10;99.90
43185;DHT22;28803;52.308;19.096;2022-10-16T16:33:51;16.00;99.90
43185;DHT22;28803;52.308;19.096;2022-10-16T16:36:19;16.00;99.90
43185;DHT22;28803;52.308;19.096;2022-10-16T16:38:47;15.90;99.90
43185;DHT22;28803;52.308;19.096;2022-10-16T16:41:16;15.80;99.90
43185;DHT22;28803;52.308;19.096;2022-10-16T16:43:44;15.80;99.90
43185;DHT22;28803;52.308;19.096;2022-10-16T16:46:11;15.70;99.90
43185;DHT22;28803;52.308;19.096;2022-10-16T16:48:39;15.60;99.90
43185;DHT22;28803;52.308;19.096;2022-10-16T16:51:07;15.50;99.90
43185;DHT22;28803;52.308;19.096;2022-10-16T16:53:36;15.50;99.90
43185;DHT22;28803;52.308;19.096;2022-10-16T16:56:05;15.60;99.90
43185;DHT22;28803;52.308;19.096;2022-10-16T16:58:32;15.60;99.90
43185;DHT22;28803;52.308;19.096;2022-10-16T17:01:00;15.60;99.90
43185;DHT22;28803;52.308;19.096;2022-10-16T17:03:46;15.50;99.90
43185;DHT22;28803;52.308;19.096;2022-10-16T17:06:19;15.50;99.90
43185;DHT22;28803;52.308;19.096;2022-10-16T17:08:48;15.40;99.90
43185;DHT22;28803;52.308;19.096;2022-10-16T17:11:21;15.30;99.90
43185;DHT22;28803;52.308;19.096;2022-10-16T17:13:48;15.20;99.90
43185;DHT22;28803;52.308;19.096;2022-10-16T17:16:23;15.10;99.90
43185;DHT22;28803;52.308;19.096;2022-10-16T17:18:50;15.10;99.90